createdAt,value
2023-01-03T00:02:14.696Z,16.55
2023-01-03T00:04:45.856Z,16.35
2023-01-03T00:07:15.567Z,16.95
2023-01-03T00:09:42.115Z,15.52
2023-01-03T00:12:30.158Z,15.77
2023-01-03T00:14:57.694Z,14.05
2023-01-03T00:17:24.858Z,17.50
2023-01-03T00:19:51.481Z,18.00
2023-01-03T00:22:18.453Z,15.57
2023-01-03T00:24:46.373Z,14.68
2023-01-03T00:27:14.443Z,13.55
2023-01-03T00:29:42.219Z,16.33
2023-01-03T00:32:09.730Z,14.70
2023-01-03T00:34:36.597Z,18.35
2023-01-03T00:37:03.294Z,15.77
2023-01-03T00:39:29.841Z,17.67
2023-01-03T00:41:56.697Z,16.23
2023-01-03T00:44:23.377Z,16.60
2023-01-03T00:46:49.925Z,18.33
2023-01-03T00:49:16.590Z,18.42
2023-01-03T00:51:43.868Z,21.63
2023-01-03T00:54:12.943Z,16.73
2023-01-03T00:56:42.163Z,16.50
2023-01-03T00:59:10.281Z,18.67
2023-01-03T01:01:47.257Z,16.50
2023-01-03T01:04:18.835Z,15.38
2023-01-03T01:06:48.337Z,15.07
2023-01-03T01:09:19.350Z,14.57
2023-01-03T01:11:46.950Z,17.60
2023-01-03T01:14:20.482Z,14.77
2023-01-03T01:17:08.161Z,17.48
2023-01-03T01:19:37.714Z,16.75
2023-01-03T01:22:05.079Z,16.05
2023-01-03T01:24:32.080Z,14.65
2023-01-03T01:26:59.079Z,16.15
2023-01-03T01:29:25.927Z,16.27
2023-01-03T01:31:52.764Z,14.95
2023-01-03T01:34:19.516Z,15.40
2023-01-03T01:36:47.067Z,15.60
2023-01-03T01:39:19.693Z,18.08
2023-01-03T01:44:52.783Z,17.50
2023-01-03T01:47:55.181Z,15.60
2023-01-03T01:50:29.393Z,16.88
2023-01-03T01:53:01.884Z,16.25
2023-01-03T01:55:58.002Z,15.70
2023-01-03T01:58:28.695Z,16.65
2023-01-03T02:00:55.758Z,15.02
2023-01-03T02:03:22.422Z,14.20
2023-01-03T02:05:53.653Z,14.77
2023-01-03T02:08:20.770Z,12.57
2023-01-03T02:11:17.120Z,13.15
2023-01-03T02:14:11.324Z,11.60
2023-01-03T02:17:11.793Z,10.57
2023-01-03T02:19:59.657Z,11.60
2023-01-03T02:22:55.101Z,11.50
2023-01-03T02:25:27.742Z,12.07
2023-01-03T02:30:33.755Z,11.55
2023-01-03T02:33:09.374Z,10.70
2023-01-03T02:35:53.096Z,12.10
2023-01-03T02:38:49.300Z,10.38
2023-01-03T02:41:33.197Z,11.98
2023-01-03T02:44:13.255Z,10.90
2023-01-03T02:46:44.558Z,10.68
2023-01-03T02:49:25.007Z,11.50
2023-01-03T02:52:00.194Z,9.60
2023-01-03T02:55:11.690Z,10.55
2023-01-03T02:58:00.535Z,8.73
2023-01-03T03:00:30.710Z,8.95
2023-01-03T03:03:03.378Z,9.45
2023-01-03T03:05:42.360Z,8.35
2023-01-03T03:08:08.891Z,9.82
2023-01-03T03:10:54.441Z,9.02
2023-01-03T03:13:36.125Z,10.45
2023-01-03T03:16:12.886Z,9.38
2023-01-03T03:18:45.332Z,9.95
2023-01-03T03:21:33.943Z,10.43
2023-01-03T03:24:27.964Z,8.85
2023-01-03T03:26:58.499Z,10.07
2023-01-03T03:29:26.244Z,9.65
2023-01-03T03:31:54.903Z,9.77
2023-01-03T03:34:31.348Z,9.95
2023-01-03T03:37:14.817Z,9.23
2023-01-03T03:39:59.819Z,9.77
2023-01-03T03:42:57.334Z,10.73
2023-01-03T03:45:53.192Z,10.40
2023-01-03T03:48:24.288Z,10.80
2023-01-03T03:51:08.289Z,12.10
2023-01-03T03:53:38.265Z,10.93
2023-01-03T03:56:12.814Z,11.05
2023-01-03T03:58:41.966Z,10.88
2023-01-03T04:01:12.083Z,9.57
2023-01-03T04:03:42.222Z,11.20
2023-01-03T04:06:18.835Z,10.93
2023-01-03T04:08:45.537Z,11.68
2023-01-03T04:11:12.238Z,11.18
2023-01-03T04:13:39.344Z,11.70
2023-01-03T04:16:07.524Z,9.48
2023-01-03T04:18:34.196Z,10.57
2023-01-03T04:21:00.808Z,11.88
2023-01-03T04:23:27.452Z,10.63
2023-01-03T04:25:54.011Z,10.23
2023-01-03T04:28:20.576Z,10.77
2023-01-03T04:30:47.426Z,9.27
2023-01-03T04:33:14.060Z,10.20
2023-01-03T04:35:40.783Z,9.38
2023-01-03T04:38:07.913Z,8.65
2023-01-03T04:40:35.293Z,8.63
2023-01-03T04:43:20.529Z,9.98
2023-01-03T04:45:51.755Z,10.55
2023-01-03T04:48:18.444Z,9.82
2023-01-03T04:50:59.606Z,10.13
2023-01-03T04:53:27.615Z,9.32
2023-01-03T04:55:56.754Z,10.02
2023-01-03T04:58:23.756Z,8.75
2023-01-03T05:00:50.273Z,8.68
2023-01-03T05:03:21.421Z,10.07
2023-01-03T05:06:00.937Z,10.73
2023-01-03T05:08:27.549Z,9.82
2023-01-03T05:10:54.338Z,8.88
2023-01-03T05:13:20.941Z,9.70
2023-01-03T05:15:47.758Z,10.85
2023-01-03T05:18:15.654Z,10.00
2023-01-03T05:21:00.774Z,9.88
2023-01-03T05:23:45.918Z,11.50
2023-01-03T05:26:18.747Z,11.85
2023-01-03T05:28:49.382Z,10.80
2023-01-03T05:31:16.014Z,11.82
2023-01-03T05:33:42.644Z,11.38
2023-01-03T05:36:10.143Z,12.40
2023-01-03T05:38:37.786Z,12.23
2023-01-03T05:41:04.732Z,13.30
2023-01-03T05:43:31.338Z,11.88
2023-01-03T05:45:57.962Z,11.82
2023-01-03T05:48:24.663Z,12.73
2023-01-03T05:50:52.153Z,12.32
2023-01-03T05:53:18.637Z,12.07
2023-01-03T05:55:45.106Z,12.70
2023-01-03T05:58:12.662Z,13.45
2023-01-03T06:00:39.566Z,12.98
2023-01-03T06:03:06.713Z,13.88
2023-01-03T06:05:33.437Z,12.82
2023-01-03T06:08:02.036Z,12.93
2023-01-03T06:10:29.165Z,12.00
2023-01-03T06:12:55.893Z,11.27
2023-01-03T06:15:22.535Z,11.77
2023-01-03T06:17:55.140Z,12.70
2023-01-03T06:22:48.318Z,11.38
2023-01-03T06:25:15.224Z,10.73
2023-01-03T06:27:41.833Z,12.10
2023-01-03T06:30:09.483Z,11.18
2023-01-03T06:32:36.057Z,11.85
2023-01-03T06:35:02.642Z,11.77
2023-01-03T06:37:29.146Z,11.18
2023-01-03T06:39:55.719Z,10.38
2023-01-03T06:42:41.031Z,11.38
2023-01-03T06:45:27.144Z,10.90
2023-01-03T06:48:12.366Z,11.27
2023-01-03T06:50:59.541Z,12.10
2023-01-03T06:53:29.075Z,11.85
2023-01-03T06:55:57.312Z,11.82
2023-01-03T06:58:24.607Z,11.57
2023-01-03T07:00:51.205Z,11.50
2023-01-03T07:03:17.765Z,10.90
2023-01-03T07:05:44.264Z,11.43
2023-01-03T07:08:10.979Z,12.93
2023-01-03T07:10:37.511Z,12.13
2023-01-03T07:13:22.439Z,11.63
2023-01-03T07:15:49.641Z,12.40
2023-01-03T07:18:16.325Z,12.75
2023-01-03T07:20:45.729Z,11.68
2023-01-03T07:23:13.377Z,11.15
2023-01-03T07:25:41.722Z,11.15
2023-01-03T07:28:13.421Z,11.88
2023-01-03T07:30:42.346Z,12.53
2023-01-03T07:33:11.120Z,12.55
2023-01-03T07:35:37.898Z,13.57
2023-01-03T07:38:08.067Z,14.15
2023-01-03T07:40:34.661Z,12.88
2023-01-03T07:43:19.830Z,11.95
2023-01-03T07:45:46.956Z,13.43
2023-01-03T07:48:14.247Z,12.20
2023-01-03T07:50:41.662Z,13.45
2023-01-03T07:53:08.984Z,12.93
2023-01-03T07:55:37.324Z,13.52
2023-01-03T07:58:04.435Z,12.23
2023-01-03T08:00:31.006Z,12.90
2023-01-03T08:02:57.706Z,12.82
2023-01-03T08:05:25.627Z,13.05
2023-01-03T08:07:53.075Z,12.40
2023-01-03T08:10:39.254Z,11.80
2023-01-03T08:13:18.294Z,12.15
2023-01-03T08:15:53.702Z,13.20
2023-01-03T08:18:22.767Z,12.57
2023-01-03T08:20:49.681Z,12.60
2023-01-03T08:23:16.184Z,12.45
2023-01-03T08:25:42.720Z,14.05
2023-01-03T08:28:10.703Z,13.32
2023-01-03T08:30:46.954Z,12.38
2023-01-03T08:33:15.563Z,13.57
2023-01-03T08:35:48.636Z,12.50
2023-01-03T08:38:18.998Z,13.10
2023-01-03T08:40:47.643Z,12.10
2023-01-03T08:43:15.760Z,11.85
2023-01-03T08:45:42.423Z,11.93
2023-01-03T08:48:10.387Z,10.95
2023-01-03T08:50:37.555Z,12.48
2023-01-03T08:53:05.754Z,11.52
2023-01-03T08:55:33.707Z,12.05
2023-01-03T08:58:00.395Z,12.38
2023-01-03T09:00:28.737Z,11.77
2023-01-03T09:03:00.166Z,11.77
2023-01-03T09:05:28.152Z,8.03
2023-01-03T09:07:55.295Z,11.38
2023-01-03T09:10:23.016Z,11.10
2023-01-03T09:12:49.875Z,12.93
2023-01-03T09:15:16.628Z,12.32
2023-01-03T09:17:45.119Z,11.23
2023-01-03T09:20:13.249Z,11.48
2023-01-03T09:22:40.126Z,10.07
2023-01-03T09:25:07.926Z,11.35
2023-01-03T09:27:34.914Z,11.00
2023-01-03T09:30:01.912Z,9.20
2023-01-03T09:32:28.493Z,10.35
2023-01-03T09:34:55.039Z,9.70
2023-01-03T09:37:21.524Z,9.93
2023-01-03T09:39:48.031Z,10.02
2023-01-03T09:42:39.190Z,9.88
2023-01-03T09:45:07.997Z,9.45
2023-01-03T09:47:37.961Z,9.70
2023-01-03T09:53:12.310Z,9.60
2023-01-03T09:56:14.215Z,9.30
2023-01-03T09:59:01.044Z,9.55
2023-01-03T10:01:52.297Z,9.35
2023-01-03T10:04:56.574Z,10.77
2023-01-03T10:07:33.720Z,9.25
2023-01-03T10:10:15.501Z,9.57
2023-01-03T10:12:58.889Z,10.25
2023-01-03T10:15:51.281Z,10.23
2023-01-03T10:18:26.848Z,9.35
2023-01-03T10:21:01.659Z,9.98
2023-01-03T10:23:30.350Z,9.20
2023-01-03T10:25:57.819Z,9.57
2023-01-03T10:28:33.363Z,9.70
2023-01-03T10:31:12.728Z,9.68
2023-01-03T10:33:48.015Z,9.82
2023-01-03T10:36:16.598Z,10.57
2023-01-03T10:38:51.970Z,9.60
2023-01-03T10:41:39.259Z,10.35
2023-01-03T10:44:05.895Z,9.57
2023-01-03T10:46:32.690Z,9.68
2023-01-03T10:49:33.227Z,9.68
2023-01-03T10:52:24.476Z,8.93
2023-01-03T10:54:58.628Z,9.18
2023-01-03T10:57:39.784Z,9.68
2023-01-03T11:00:43.171Z,8.98
2023-01-03T11:03:11.973Z,8.82
2023-01-03T11:05:41.216Z,8.77
2023-01-03T11:08:34.923Z,8.70
2023-01-03T11:11:01.514Z,8.15
2023-01-03T11:13:41.380Z,7.97
2023-01-03T11:16:16.833Z,8.55
2023-01-03T11:18:58.175Z,8.13
2023-01-03T11:21:39.866Z,7.43
2023-01-03T11:24:24.452Z,8.07
2023-01-03T11:27:09.842Z,7.43
2023-01-03T11:30:10.207Z,8.85
2023-01-03T11:33:14.469Z,7.22
2023-01-03T11:36:10.099Z,7.32
2023-01-03T11:39:03.153Z,6.88
2023-01-03T11:44:39.432Z,6.55
2023-01-03T11:47:39.525Z,7.03
2023-01-03T11:50:08.671Z,5.97
2023-01-03T11:52:50.708Z,5.72
2023-01-03T11:55:36.889Z,6.93
2023-01-03T11:58:22.643Z,6.10
2023-01-03T12:01:05.834Z,6.30
2023-01-03T12:03:45.935Z,6.20
2023-01-03T12:06:29.018Z,5.32
2023-01-03T12:09:04.676Z,6.07
2023-01-03T12:12:07.584Z,5.95
2023-01-03T12:14:47.079Z,5.80
2023-01-03T12:17:26.703Z,5.07
2023-01-03T12:20:00.229Z,5.75
2023-01-03T12:22:37.404Z,5.30
2023-01-03T12:25:27.800Z,5.32
2023-01-03T12:28:03.399Z,5.65
2023-01-03T12:30:41.384Z,5.10
2023-01-03T12:33:31.064Z,5.60
2023-01-03T12:36:01.436Z,6.05
2023-01-03T12:38:32.236Z,5.95
2023-01-03T12:41:09.593Z,5.28
2023-01-03T12:43:46.751Z,5.63
2023-01-03T12:46:18.551Z,5.57
2023-01-03T12:48:51.491Z,6.03
2023-01-03T12:51:22.061Z,6.18
2023-01-03T12:53:51.852Z,9.10
2023-01-03T12:56:46.204Z,6.35
2023-01-03T12:59:39.077Z,7.60
2023-01-03T13:02:47.177Z,7.45
2023-01-03T13:05:39.839Z,6.65
2023-01-03T13:08:06.466Z,6.55
2023-01-03T13:10:40.128Z,6.40
2023-01-03T13:13:07.419Z,6.40
2023-01-03T13:15:37.347Z,5.53
2023-01-03T13:18:23.288Z,6.22
2023-01-03T13:20:51.330Z,5.63
2023-01-03T13:23:32.073Z,6.63
2023-01-03T13:26:07.782Z,6.50
2023-01-03T13:28:38.928Z,5.97
2023-01-03T13:31:14.749Z,6.07
2023-01-03T13:33:56.015Z,6.90
2023-01-03T13:36:24.360Z,6.53
2023-01-03T13:38:51.564Z,6.38
2023-01-03T13:41:38.900Z,6.75
2023-01-03T13:44:17.819Z,6.00
2023-01-03T13:46:44.557Z,6.38
2023-01-03T13:49:19.544Z,6.28
2023-01-03T13:51:55.285Z,6.30
2023-01-03T13:54:21.823Z,6.78
2023-01-03T13:56:48.277Z,6.00
2023-01-03T13:59:14.794Z,5.75
2023-01-03T14:01:44.388Z,5.65
2023-01-03T14:04:17.107Z,5.05
2023-01-03T14:07:21.183Z,4.85
2023-01-03T14:09:56.697Z,3.53
2023-01-03T14:12:54.189Z,3.80
2023-01-03T14:15:26.776Z,3.50
2023-01-03T14:18:11.516Z,3.38
2023-01-03T14:20:41.856Z,3.78
2023-01-03T14:23:57.221Z,3.00
2023-01-03T14:26:12.565Z,3.17
2023-01-03T14:28:39.978Z,2.67
2023-01-03T14:31:16.234Z,2.72
2023-01-03T14:33:48.471Z,2.85
2023-01-03T14:36:16.893Z,2.90
2023-01-03T14:38:51.838Z,2.65
2023-01-03T14:42:08.917Z,2.97
2023-01-03T14:44:35.580Z,2.92
2023-01-03T14:47:06.445Z,3.03
2023-01-03T14:49:45.660Z,2.50
2023-01-03T14:52:27.414Z,3.28
2023-01-03T14:55:03.495Z,2.80
2023-01-03T14:57:30.939Z,2.75
2023-01-03T15:00:00.708Z,3.50
2023-01-03T15:02:31.261Z,2.53
2023-01-03T15:05:01.172Z,2.97
2023-01-03T15:07:39.448Z,2.38
2023-01-03T15:10:15.165Z,2.97
2023-01-03T15:12:50.691Z,2.85
2023-01-03T15:15:24.011Z,3.00
2023-01-03T15:17:55.325Z,3.40
2023-01-03T15:20:30.991Z,6.70
2023-01-03T15:22:57.557Z,6.30
2023-01-03T15:25:43.187Z,5.82
2023-01-03T15:28:35.161Z,4.45
2023-01-03T15:31:26.616Z,4.20
2023-01-03T15:34:13.264Z,3.40
2023-01-03T15:36:41.234Z,2.60
2023-01-03T15:39:10.342Z,2.40
2023-01-03T15:42:20.037Z,3.15
2023-01-03T15:44:45.923Z,3.13
2023-01-03T15:47:19.023Z,3.00
2023-01-03T15:49:50.183Z,3.10
2023-01-03T15:52:17.150Z,3.05
2023-01-03T15:54:44.981Z,2.97
2023-01-03T15:57:20.790Z,2.92
2023-01-03T15:59:55.004Z,2.90
2023-01-03T16:02:24.600Z,3.20
2023-01-03T16:04:53.083Z,2.67
2023-01-03T16:07:20.069Z,3.40
2023-01-03T16:09:47.015Z,3.30
2023-01-03T16:12:17.852Z,3.70
2023-01-03T16:14:48.521Z,3.30
2023-01-03T16:17:33.216Z,3.15
2023-01-03T16:20:01.261Z,3.40
2023-01-03T16:22:35.133Z,3.83
2023-01-03T16:25:03.415Z,4.20
2023-01-03T16:27:30.078Z,3.85
2023-01-03T16:29:56.600Z,3.65
2023-01-03T16:32:28.605Z,3.83
2023-01-03T16:35:04.632Z,3.50
2023-01-03T16:37:33.357Z,3.90
2023-01-03T16:39:59.939Z,3.42
2023-01-03T16:42:27.976Z,3.95
2023-01-03T16:44:54.789Z,4.50
2023-01-03T16:47:32.831Z,14.82
2023-01-03T16:50:12.960Z,9.85
2023-01-03T16:52:43.209Z,8.25
2023-01-03T16:55:32.123Z,5.50
2023-01-03T16:57:59.063Z,5.13
2023-01-03T17:00:31.528Z,5.30
2023-01-03T17:03:00.104Z,5.05
2023-01-03T17:05:37.976Z,3.80
2023-01-03T17:08:08.219Z,3.80
2023-01-03T17:10:38.780Z,3.60
2023-01-03T17:13:12.158Z,3.58
2023-01-03T17:15:39.698Z,4.22
2023-01-03T17:18:06.254Z,3.17
2023-01-03T17:20:32.798Z,3.35
2023-01-03T17:23:00.368Z,3.60
2023-01-03T17:25:27.154Z,3.33
2023-01-03T17:27:57.777Z,3.17
2023-01-03T17:30:28.039Z,3.40
2023-01-03T17:33:11.841Z,3.42
2023-01-03T17:35:39.470Z,4.18
2023-01-03T17:38:25.388Z,3.63
2023-01-03T17:40:55.096Z,3.80
2023-01-03T17:43:23.723Z,3.20
2023-01-03T17:46:20.606Z,3.22
2023-01-03T17:49:11.154Z,2.72
2023-01-03T17:51:37.726Z,2.97
2023-01-03T17:54:04.458Z,3.30
2023-01-03T17:56:31.058Z,2.85
2023-01-03T17:58:57.598Z,3.08
2023-01-03T18:01:24.481Z,2.70
2023-01-03T18:03:51.395Z,2.85
2023-01-03T18:06:20.970Z,2.70
2023-01-03T18:08:48.360Z,2.80
2023-01-03T18:11:17.896Z,2.97
2023-01-03T18:13:47.211Z,3.45
2023-01-03T18:16:19.678Z,1.98
2023-01-03T18:18:47.131Z,3.40
2023-01-03T18:21:21.556Z,2.78
2023-01-03T18:23:58.734Z,3.15
2023-01-03T18:26:33.330Z,2.83
2023-01-03T18:29:00.402Z,3.20
2023-01-03T18:31:26.947Z,3.35
2023-01-03T18:33:53.638Z,2.55
2023-01-03T18:36:32.889Z,2.90
2023-01-03T18:39:03.643Z,3.25
2023-01-03T18:41:33.118Z,3.72
2023-01-03T18:44:00.420Z,3.65
2023-01-03T18:46:28.331Z,3.03
2023-01-03T18:48:55.007Z,3.42
2023-01-03T18:51:27.986Z,2.65
2023-01-03T18:53:58.400Z,2.35
2023-01-03T18:56:37.778Z,2.88
2023-01-03T18:59:13.109Z,2.50
2023-01-03T19:01:39.780Z,2.70
2023-01-03T19:04:06.536Z,2.30
2023-01-03T19:06:34.153Z,2.70
2023-01-03T19:09:04.860Z,2.92
2023-01-03T19:11:35.976Z,2.95
2023-01-03T19:14:03.951Z,3.05
2023-01-03T19:16:36.787Z,2.63
2023-01-03T19:19:04.803Z,2.78
2023-01-03T19:21:34.722Z,2.70
2023-01-03T19:24:12.091Z,2.15
2023-01-03T19:26:50.775Z,2.60
2023-01-03T19:29:23.996Z,3.08
2023-01-03T19:31:53.591Z,2.83
2023-01-03T19:34:25.519Z,2.55
2023-01-03T19:36:52.887Z,2.30
2023-01-03T19:39:25.120Z,2.45
2023-01-03T19:42:14.665Z,2.25
2023-01-03T19:44:42.357Z,3.08
2023-01-03T19:47:13.946Z,2.45
2023-01-03T19:49:41.577Z,2.65
2023-01-03T19:52:08.220Z,2.50
2023-01-03T19:54:34.970Z,2.42
2023-01-03T19:57:04.569Z,2.17
2023-01-03T19:59:36.904Z,3.20
2023-01-03T20:02:26.551Z,2.78
2023-01-03T20:04:53.302Z,2.53
2023-01-03T20:07:20.058Z,2.38
2023-01-03T20:09:46.596Z,2.55
2023-01-03T20:12:17.736Z,2.38
2023-01-03T20:14:49.988Z,2.53
2023-01-03T20:17:21.994Z,5.13
2023-01-03T20:20:09.820Z,2.20
2023-01-03T20:25:28.302Z,3.85
2023-01-03T20:27:56.482Z,2.58
2023-01-03T20:30:24.995Z,3.15
2023-01-03T20:32:51.728Z,3.30
2023-01-03T20:38:07.214Z,3.42
2023-01-03T20:40:33.775Z,2.60
2023-01-03T20:43:24.274Z,3.42
2023-01-03T20:46:14.065Z,3.53
2023-01-03T20:48:40.698Z,2.72
2023-01-03T20:51:11.128Z,2.17
2023-01-03T20:53:42.681Z,2.85
2023-01-03T20:56:12.193Z,2.20
2023-01-03T20:58:39.234Z,2.53
2023-01-03T21:01:07.057Z,2.30
2023-01-03T21:03:38.191Z,2.67
2023-01-03T21:06:34.408Z,2.40
2023-01-03T21:09:01.150Z,2.13
2023-01-03T21:11:30.650Z,2.03
2023-01-03T21:13:59.343Z,2.08
2023-01-03T21:16:30.646Z,2.78
2023-01-03T21:19:12.532Z,2.53
2023-01-03T21:21:40.174Z,2.28
2023-01-03T21:24:07.611Z,2.03
2023-01-03T21:26:35.130Z,2.88
2023-01-03T21:29:08.547Z,2.40
2023-01-03T21:31:37.316Z,2.13
2023-01-03T21:34:06.109Z,2.70
2023-01-03T21:36:35.417Z,2.10
2023-01-03T21:39:04.342Z,2.13
2023-01-03T21:41:35.342Z,2.42
2023-01-03T21:44:03.525Z,2.88
2023-01-03T21:46:30.554Z,2.35
2023-01-03T21:48:58.037Z,2.10
2023-01-03T21:51:35.459Z,2.78
2023-01-03T21:54:06.779Z,2.53
2023-01-03T21:56:33.863Z,2.67
2023-01-03T21:59:00.528Z,2.35
2023-01-03T22:01:27.202Z,2.70
2023-01-03T22:04:12.607Z,2.13
2023-01-03T22:06:39.920Z,3.15
2023-01-03T22:09:26.507Z,2.13
2023-01-03T22:11:53.017Z,2.90
2023-01-03T22:14:19.569Z,2.42
2023-01-03T22:16:46.082Z,2.25
2023-01-03T22:19:12.738Z,2.55
2023-01-03T22:21:39.286Z,2.30
2023-01-03T22:24:06.352Z,3.20
2023-01-03T22:26:34.532Z,2.70
2023-01-03T22:29:01.214Z,2.20
2023-01-03T22:31:28.827Z,2.00
2023-01-03T22:33:55.428Z,2.15
2023-01-03T22:36:22.042Z,2.25
2023-01-03T22:38:48.550Z,1.80
2023-01-03T22:41:17.665Z,2.22
2023-01-03T22:43:48.161Z,2.20
2023-01-03T22:47:11.939Z,1.77
2023-01-03T22:49:41.168Z,1.83
2023-01-03T22:52:08.491Z,2.45
2023-01-03T22:54:39.151Z,2.30
2023-01-03T22:57:05.779Z,1.95
2023-01-03T22:59:32.468Z,1.77
2023-01-03T23:01:59.784Z,2.00
2023-01-03T23:04:27.743Z,1.60
2023-01-03T23:06:54.512Z,1.75
2023-01-03T23:09:22.279Z,2.15
2023-01-03T23:12:07.895Z,1.60
2023-01-03T23:14:34.576Z,1.83
2023-01-03T23:17:20.222Z,1.58
2023-01-03T23:19:46.815Z,1.55
2023-01-03T23:22:14.540Z,1.67
2023-01-03T23:24:41.102Z,1.98
2023-01-03T23:27:07.685Z,1.67
2023-01-03T23:29:34.461Z,1.80
2023-01-03T23:32:01.027Z,1.58
2023-01-03T23:34:27.605Z,1.65
2023-01-03T23:36:54.231Z,2.30
2023-01-03T23:39:20.715Z,1.50
2023-01-03T23:41:47.545Z,1.42
2023-01-03T23:44:14.411Z,1.63
2023-01-03T23:46:41.744Z,1.98
2023-01-03T23:49:10.312Z,1.98
2023-01-03T23:51:38.439Z,1.92
2023-01-03T23:54:04.968Z,1.60
2023-01-03T23:56:31.485Z,1.80
2023-01-03T23:58:58.136Z,1.85
